Time;durP1;ratioP1;P1;durP2;ratioP2;P2;SDS_P1;SDS_P2;PMS_P1;PMS_P2;Temp;Humidity;BMP_temperature;BMP_pressure;BME280_temperature;BME280_humidity;BME280_pressure;Samples;Min_cycle;Max_cycle;Signal;HPM_P1;HPM_P2
2024/01/14 00:03:32;;;;;;;25.98;13.23;;;;;;;-1.07;59.11;99471.22;7766356;32;38644;-87
2024/01/14 00:07:48;;;;;;;25.12;13.73;;;;;;;-0.63;58.01;99477.00;7766357;32;38048;-86
2024/01/14 00:12:05;;;;;;;29.08;13.27;;;;;;;-0.67;58.05;99473.06;7766490;32;40088;-87
2024/01/14 00:16:21;;;;;;;24.80;12.57;;;;;;;-0.50;57.11;99460.09;7785154;32;39883;-87
2024/01/14 00:20:38;;;;;;;23.70;12.25;;;;;;;-0.47;56.81;99459.69;7793345;32;38428;-87
2024/01/14 00:24:55;;;;;;;29.52;13.65;;;;;;;-0.44;56.88;99454.72;7777252;32;37032;-87
2024/01/14 00:29:12;;;;;;;27.92;13.65;;;;;;;-0.71;57.79;99447.75;7766134;32;39370;-87
2024/01/14 00:33:29;;;;;;;29.25;14.32;;;;;;;-0.48;56.91;99452.69;7766066;32;39967;-86
2024/01/14 00:37:45;;;;;;;32.53;14.55;;;;;;;-0.83;58.01;99451.06;7765977;32;37942;-86
2024/01/14 00:42:01;;;;;;;27.52;13.80;;;;;;;-0.39;56.37;99449.56;7765962;32;37996;-86
2024/01/14 00:46:18;;;;;;;32.05;14.77;;;;;;;-0.30;55.91;99449.34;7765830;32;39114;-86
2024/01/14 00:50:34;;;;;;;28.45;14.38;;;;;;;-0.67;57.20;99438.25;7765758;32;39913;-86
2024/01/14 00:54:50;;;;;;;29.08;14.93;;;;;;;-0.78;57.21;99437.87;7765680;32;38005;-86
2024/01/14 00:59:06;;;;;;;36.47;14.38;;;;;;;-0.71;57.29;99437.84;7765782;32;37991;-86
2024/01/14 01:03:23;;;;;;;30.70;14.95;;;;;;;-0.87;57.25;99428.41;7751832;32;39156;-86
2024/01/14 01:07:39;;;;;;;38.45;16.08;;;;;;;-0.60;57.00;99404.28;7751564;32;40786;-86
2024/01/14 01:11:55;;;;;;;41.05;17.80;;;;;;;-1.08;58.41;99417.91;7765475;32;38176;-86
2024/01/14 01:16:12;;;;;;;34.42;15.68;;;;;;;-1.41;59.71;99413.34;7765493;32;37930;-86
2024/01/14 01:20:28;;;;;;;28.67;14.82;;;;;;;-1.39;59.36;99419.31;7789866;32;40019;-86
2024/01/14 01:24:44;;;;;;;27.80;15.32;;;;;;;-1.66;60.57;99418.41;7792324;32;40016;-85
2024/01/14 01:29:00;;;;;;;29.52;15.52;;;;;;;-1.03;58.80;99431.50;7778117;32;37969;-85
2024/01/14 01:33:17;;;;;;;29.48;13.50;;;;;;;-1.25;58.81;99410.25;7792540;32;38031;-86
2024/01/14 01:37:34;;;;;;;29.50;14.68;;;;;;;-1.49;59.64;99408.19;7792507;32;39778;-86
2024/01/14 01:41:51;;;;;;;27.23;13.38;;;;;;;-1.64;60.08;99401.13;7792418;32;40024;-86
2024/01/14 01:46:08;;;;;;;29.12;14.82;;;;;;;-1.31;59.03;99395.03;7792264;32;38380;-85
2024/01/14 01:50:24;;;;;;;31.85;15.32;;;;;;;-1.68;59.63;99407.09;7778479;32;37246;-84
2024/01/14 01:54:41;;;;;;;27.55;14.10;;;;;;;-1.93;60.81;99410.31;7792198;32;39297;-86
2024/01/14 01:58:58;;;;;;;29.27;15.35;;;;;;;-1.66;60.28;99387.16;7778381;32;40667;-86
2024/01/14 02:03:15;;;;;;;29.60;15.38;;;;;;;-1.24;58.73;99395.88;7792069;32;37884;-87
2024/01/14 02:07:32;;;;;;;32.08;14.65;;;;;;;-1.03;58.04;99388.69;7792057;32;37147;-87
2024/01/14 02:11:48;;;;;;;28.23;14.40;;;;;;;-0.91;57.32;99376.31;7784356;32;39058;-87
2024/01/14 02:16:04;;;;;;;31.55;14.68;;;;;;;-1.12;58.61;99387.22;7765613;32;40064;-87
2024/01/14 02:20:21;;;;;;;39.63;16.10;;;;;;;-0.68;57.36;99372.38;7764868;32;38557;-86
2024/01/14 02:24:38;;;;;;;30.02;15.45;;;;;;;-0.51;56.48;99362.88;7764484;32;38071;-87
2024/01/14 02:28:55;;;;;;;28.42;14.02;;;;;;;-0.78;57.44;99373.63;7764657;32;40228;-87
2024/01/14 02:33:11;;;;;;;26.30;14.65;;;;;;;-1.07;58.36;99374.06;7764545;32;39975;-87
2024/01/14 02:37:27;;;;;;;31.55;14.52;;;;;;;-0.82;57.76;99350.16;7764281;32;38709;-87
2024/01/14 02:41:44;;;;;;;30.27;14.18;;;;;;;-0.64;57.13;99349.50;7762725;32;37895;-87
2024/01/14 02:46:00;;;;;;;27.23;14.60;;;;;;;-0.95;58.26;99353.66;7764236;32;40196;-87
2024/01/14 02:50:17;;;;;;;34.40;15.18;;;;;;;-0.93;57.75;99342.75;7750287;32;40965;-87
2024/01/14 02:54:33;;;;;;;34.33;14.80;;;;;;;-1.19;58.76;99345.25;7764086;32;38729;-87
2024/01/14 02:58:49;;;;;;;30.92;15.15;;;;;;;-0.62;57.67;99345.59;7763949;32;38016;-87
2024/01/14 03:03:06;;;;;;;33.47;15.20;;;;;;;-0.74;57.92;99333.03;7763942;32;39071;-87
2024/01/14 03:07:22;;;;;;;27.37;14.18;;;;;;;-0.41;56.73;99352.53;7778857;32;40482;-87
2024/01/14 03:11:38;;;;;;;27.95;14.05;;;;;;;-0.40;56.84;99343.47;7790714;32;38746;-87
2024/01/14 03:15:55;;;;;;;29.90;12.65;;;;;;;-0.67;57.46;99341.88;7790705;32;37986;-86
2024/01/14 03:20:11;;;;;;;24.60;13.45;;;;;;;-0.58;57.46;99344.13;7790504;32;39944;-86
2024/01/14 03:24:27;;;;;;;27.25;13.00;;;;;;;-0.46;56.95;99343.50;7790495;32;40803;-86
2024/01/14 03:28:44;;;;;;;27.33;13.38;;;;;;;-0.16;56.10;99340.28;7790350;32;38459;-86
2024/01/14 03:33:00;;;;;;;27.35;13.88;;;;;;;-1.04;58.40;99328.97;7790401;32;37281;-86
2024/01/14 03:37:17;;;;;;;24.48;13.27;;;;;;;-0.69;57.56;99338.59;7790287;32;39363;-86
2024/01/14 03:41:33;;;;;;;27.27;13.15;;;;;;;-0.07;56.04;99321.09;7790134;32;39868;-86
2024/01/14 03:45:50;;;;;;;28.55;13.77;;;;;;;-0.39;56.97;99318.31;7789916;32;38434;-86
2024/01/14 03:50:06;;;;;;;24.23;13.27;;;;;;;-0.93;58.58;99316.84;7789938;32;36929;-86
2024/01/14 03:54:22;;;;;;;24.65;13.10;;;;;;;-0.57;57.58;99310.13;7793491;32;39340;-86
2024/01/14 03:58:39;;;;;;;26.00;12.05;;;;;;;-0.20;56.33;99300.53;7793673;32;39981;-86
2024/01/14 04:02:55;;;;;;;22.95;12.18;;;;;;;-0.57;57.59;99299.44;7791829;32;37979;-86
2024/01/14 04:07:11;;;;;;;21.80;12.37;;;;;;;-0.44;57.05;99299.37;7793853;32;37999;-86
2024/01/14 04:11:28;;;;;;;24.45;13.38;;;;;;;0.04;55.52;99278.56;7793280;32;39970;-86
2024/01/14 04:15:44;;;;;;;23.17;11.65;;;;;;;-0.72;57.12;99280.97;7793505;32;40912;-86
2024/01/14 04:20:01;;;;;;;26.17;12.18;;;;;;;0.07;55.19;99267.38;7793337;32;38633;-86
2024/01/14 04:24:17;;;;;;;26.60;13.32;;;;;;;-0.01;55.77;99271.97;7793229;32;37144;-86
2024/01/14 04:28:33;;;;;;;28.30;12.27;;;;;;;0.05;55.30;99269.47;7793322;32;40083;-86
2024/01/14 04:32:49;;;;;;;23.83;12.37;;;;;;;-0.37;56.24;99258.38;7793330;32;40871;-86
2024/01/14 04:37:06;;;;;;;22.83;11.45;;;;;;;0.17;55.24;99262.37;7793123;32;37574;-86
2024/01/14 04:41:22;;;;;;;24.92;12.27;;;;;;;0.14;55.04;99252.09;7793143;32;38052;-86
2024/01/14 04:45:39;;;;;;;25.30;12.07;;;;;;;0.23;55.22;99256.16;7792975;32;39404;-85
2024/01/14 04:49:55;;;;;;;27.83;12.60;;;;;;;0.27;55.10;99252.00;7779051;32;40717;-86
2024/01/14 04:54:11;;;;;;;27.83;12.27;;;;;;;0.41;54.63;99260.75;7788383;32;37907;-86
2024/01/14 04:58:28;;;;;;;27.42;12.48;;;;;;;0.31;54.64;99266.63;7765762;32;36983;-87
2024/01/14 05:02:44;;;;;;;23.15;11.98;;;;;;;0.46;54.76;99278.88;7764929;32;39008;-86
2024/01/14 05:07:00;;;;;;;26.70;13.25;;;;;;;0.19;55.38;99260.31;7765593;32;40805;-85
2024/01/14 05:11:16;;;;;;;21.00;12.15;;;;;;;0.58;54.26;99263.72;7765799;32;37927;-85
2024/01/14 05:15:33;;;;;;;24.80;12.60;;;;;;;0.17;54.93;99271.25;7765587;32;37836;-87
2024/01/14 05:19:49;;;;;;;25.20;12.82;;;;;;;0.49;54.46;99255.13;7751759;32;40100;-86
2024/01/14 05:24:05;;;;;;;29.48;13.45;;;;;;;0.36;59.08;99249.84;7765381;32;39996;-86
2024/01/14 05:28:22;;;;;;;30.10;13.57;;;;;;;0.31;55.55;99253.22;7765226;32;37681;-87
2024/01/14 05:32:38;;;;;;;26.05;14.15;;;;;;;-0.01;56.01;99255.06;7765609;32;38262;-86
2024/01/14 05:36:55;;;;;;;31.17;14.23;;;;;;;-0.26;56.89;99261.22;7765398;32;40057;-85
2024/01/14 05:41:14;;;;;;;32.03;14.75;;;;;;;-0.67;57.61;99261.56;7752067;32;40002;-86
2024/01/14 05:45:30;;;;;;;24.23;13.55;;;;;;;-1.04;59.37;99261.28;7751444;32;38155;-85
2024/01/14 05:49:47;;;;;;;33.90;14.45;;;;;;;-1.12;59.55;99265.00;7779424;32;37185;-86
2024/01/14 05:54:03;;;;;;;29.92;15.02;;;;;;;-0.60;58.23;99254.34;7792296;32;39329;-86
2024/01/14 05:58:20;;;;;;;30.90;14.27;;;;;;;-0.72;58.61;99256.06;7792305;32;39663;-85
2024/01/14 06:02:36;;;;;;;38.22;14.73;;;;;;;-0.19;57.40;99258.47;7792098;32;37556;-86
2024/01/14 06:06:52;;;;;;;29.30;14.48;;;;;;;0.05;56.43;99251.53;7792055;32;37279;-85
2024/01/14 06:11:09;;;;;;;39.85;17.87;;;;;;;-0.12;56.41;99250.41;7791398;32;39260;-85
2024/01/14 06:15:25;;;;;;;43.08;16.90;;;;;;;-0.47;57.94;99254.28;7791766;32;39967;-86
2024/01/14 06:19:42;;;;;;;41.42;17.55;;;;;;;-1.01;59.82;99253.66;7791902;32;37799;-86
2024/01/14 06:23:58;;;;;;;39.88;17.48;;;;;;;-0.97;59.37;99257.56;7771598;32;37254;-87
2024/01/14 06:28:15;;;;;;;35.92;16.23;;;;;;;-1.79;61.59;99253.50;7771295;32;40062;-85
2024/01/14 06:32:34;;;;;;;39.80;17.17;;;;;;;-0.42;57.90;99254.47;7782989;32;40832;-87
2024/01/14 06:36:50;;;;;;;36.08;15.40;;;;;;;-1.11;60.15;99263.94;7779951;32;37973;-86
2024/01/14 06:41:06;;;;;;;35.80;16.60;;;;;;;-1.06;59.94;99263.34;7766384;32;38070;-87
2024/01/14 06:45:26;;;;;;;37.45;16.80;;;;;;;-1.03;60.01;99266.41;7764393;32;39894;-87
2024/01/14 06:49:42;;;;;;;40.00;17.25;;;;;;;-1.07;60.08;99256.31;7764246;32;39967;-86
2024/01/14 06:53:59;;;;;;;36.97;16.40;;;;;;;-0.56;58.48;99258.25;7763241;32;38651;-86
2024/01/14 06:58:15;;;;;;;37.65;16.80;;;;;;;-0.97;59.07;99251.38;7763497;32;37205;-86
2024/01/14 07:02:31;;;;;;;32.03;16.62;;;;;;;-0.49;57.91;99244.81;7762105;32;40126;-86
2024/01/14 07:06:47;;;;;;;41.50;17.75;;;;;;;-0.98;59.52;99247.06;7794181;32;40500;-76
2024/01/14 07:11:05;;;;;;;41.08;16.77;;;;;;;-0.36;62.14;99242.09;7818203;32;37670;-87
2024/01/14 07:15:22;;;;;;;41.97;18.73;;;;;;;0.05;56.84;99237.31;7817730;32;37107;-86
2024/01/14 07:19:39;;;;;;;37.15;17.52;;;;;;;-1.03;59.38;99236.97;7818003;32;39294;-86
2024/01/14 07:23:55;;;;;;;34.03;16.62;;;;;;;-0.51;58.30;99238.87;7817728;32;40837;-86
2024/01/14 07:28:11;;;;;;;41.08;18.12;;;;;;;-0.73;59.05;99246.37;7820056;32;38132;-87
2024/01/14 07:32:28;;;;;;;30.50;16.25;;;;;;;-1.07;60.03;99250.97;7780376;32;36841;-86
2024/01/14 07:36:44;;;;;;;36.03;17.08;;;;;;;-0.95;59.81;99241.28;7766616;32;40033;-85
2024/01/14 07:41:00;;;;;;;39.85;17.80;;;;;;;-0.72;59.25;99248.84;7766843;32;40547;-86
2024/01/14 07:45:16;;;;;;;32.10;16.48;;;;;;;-0.73;59.44;99251.72;7766543;32;38026;-85
2024/01/14 07:49:32;;;;;;;39.60;17.27;;;;;;;-0.56;58.85;99250.22;7773680;32;37526;-85
2024/01/14 07:53:49;;;;;;;36.30;16.73;;;;;;;-0.10;57.41;99246.47;7821000;32;39238;-85
2024/01/14 07:58:05;;;;;;;36.30;17.98;;;;;;;-0.96;60.03;99255.69;7820925;32;39872;-86
2024/01/14 08:02:21;;;;;;;36.90;18.30;;;;;;;-0.15;57.79;99243.62;7820794;32;38777;-86
2024/01/14 08:06:37;;;;;;;33.58;16.05;;;;;;;-0.54;59.15;99252.69;7815774;32;38043;-86
2024/01/14 08:10:54;;;;;;;32.13;15.77;;;;;;;-0.76;59.89;99253.78;7778288;32;38972;-85
2024/01/14 08:15:10;;;;;;;39.35;16.80;;;;;;;-0.81;59.49;99261.63;7778364;32;39945;-85
2024/01/14 08:19:26;;;;;;;37.38;17.17;;;;;;;-0.81;59.43;99266.12;7786310;32;37736;-86
2024/01/14 08:23:43;;;;;;;37.05;16.48;;;;;;;-0.51;58.75;99266.47;7790782;32;37379;-87
2024/01/14 08:28:00;;;;;;;39.78;18.20;;;;;;;-0.67;59.19;99261.56;7765048;32;38862;-87
2024/01/14 08:32:16;;;;;;;34.63;17.90;;;;;;;-0.31;58.66;99253.00;7784389;32;39631;-87
2024/01/14 08:36:32;;;;;;;40.97;18.37;;;;;;;-0.08;57.94;99254.31;7777583;32;37966;-87
2024/01/14 08:40:51;;;;;;;31.12;15.88;;;;;;;-0.29;58.15;99258.12;7792192;32;37262;-70
2024/01/14 08:45:07;;;;;;;39.15;17.98;;;;;;;0.30;58.28;99256.09;7793212;32;39271;-83
2024/01/14 08:49:24;;;;;;;29.10;12.50;;;;;;;0.49;58.88;99259.69;7785306;32;39723;-86
2024/01/14 08:53:41;;;;;;;34.10;15.77;;;;;;;0.77;55.24;99256.53;7765953;32;37821;-86
2024/01/14 08:57:57;;;;;;;35.75;17.15;;;;;;;0.11;56.89;99256.03;7765667;32;37313;-86
2024/01/14 09:02:13;;;;;;;30.48;15.40;;;;;;;0.95;54.75;99255.75;7765726;32;39326;-87
2024/01/14 09:06:29;;;;;;;30.20;14.52;;;;;;;0.51;59.33;99249.53;7765613;32;40918;-87
2024/01/14 09:10:47;;;;;;;27.55;13.88;;;;;;;0.79;55.60;99257.13;7765860;32;38471;-87
2024/01/14 09:15:06;;;;;;;30.33;15.55;;;;;;;-0.01;57.72;99274.66;7765628;32;37968;-86
2024/01/14 09:19:22;;;;;;;31.87;16.90;;;;;;;0.69;56.27;99268.38;7765564;32;40123;-87
2024/01/14 09:23:40;;;;;;;29.17;13.98;;;;;;;0.50;56.20;99272.03;7775306;32;39158;-86
2024/01/14 09:27:57;;;;;;;27.55;14.43;;;;;;;0.88;55.42;99255.81;7776847;32;37894;-87
2024/01/14 09:32:13;;;;;;;29.67;15.02;;;;;;;0.47;56.48;99261.75;7777326;32;37960;-85
2024/01/14 09:36:31;;;;;;;31.55;15.30;;;;;;;0.17;57.83;99262.37;7778643;32;40267;-86
2024/01/14 09:41:02;;;;;;;30.58;14.48;;;;;;;0.80;55.94;99248.03;7777274;32;39892;-85
2024/01/14 09:45:20;;;;;;;29.92;14.48;;;;;;;0.82;55.87;99237.91;7771334;32;38065;-85
2024/01/14 09:49:45;;;;;;;30.90;14.87;;;;;;;0.21;57.28;99242.16;7777488;32;37503;-85
2024/01/14 09:54:03;;;;;;;32.90;13.95;;;;;;;0.10;57.91;99226.75;7777855;32;39851;-86
2024/01/14 09:58:20;;;;;;;32.03;14.30;;;;;;;0.16;57.66;99221.34;7777377;32;40717;-86
2024/01/14 10:02:37;;;;;;;24.52;12.15;;;;;;;-0.21;58.81;99212.31;7792210;32;38616;-86
2024/01/14 10:06:54;;;;;;;29.75;14.05;;;;;;;-0.09;59.21;99217.81;7792229;32;37414;-87
2024/01/14 10:11:10;;;;;;;24.85;12.10;;;;;;;0.75;56.60;99221.88;7792136;32;39321;-86
2024/01/14 10:15:26;;;;;;;29.23;12.75;;;;;;;0.58;56.20;99218.13;7792003;32;40801;-86
2024/01/14 10:19:44;;;;;;;32.42;15.43;;;;;;;1.20;55.13;99215.41;7791860;32;37910;-85
2024/01/14 10:24:02;;;;;;;34.92;14.73;;;;;;;0.70;56.43;99202.94;7762902;32;156540;-86
2024/01/14 10:28:18;;;;;;;29.80;15.10;;;;;;;1.60;53.87;99196.09;7783815;32;39076;-85
2024/01/14 10:32:34;;;;;;;32.05;15.13;;;;;;;1.17;54.39;99196.25;7773757;32;40805;-85
2024/01/14 10:37:11;;;;;;;40.30;14.80;;;;;;;1.68;53.32;99192.28;7791256;32;38246;-86
2024/01/14 10:41:27;;;;;;;28.98;14.60;;;;;;;2.03;53.27;99189.69;7787242;32;38016;-87
2024/01/14 10:45:46;;;;;;;27.17;13.25;;;;;;;1.91;52.30;99170.00;7751331;32;40427;-85
2024/01/14 10:50:03;;;;;;;28.92;13.02;;;;;;;1.96;52.55;99172.03;7761065;32;40042;-85
2024/01/14 10:54:47;;;;;;;23.48;12.95;;;;;;;0.71;55.31;99177.75;7790053;32;37952;-85
2024/01/14 10:59:04;;;;;;;27.23;13.57;;;;;;;1.39;54.32;99159.00;7791354;32;37673;-85
2024/01/14 11:03:21;;;;;;;26.25;13.27;;;;;;;1.23;54.43;99161.25;7776004;32;40076;-84
2024/01/14 11:07:37;;;;;;;26.45;12.93;;;;;;;1.25;55.07;99152.97;7761286;32;40047;-88
2024/01/14 11:11:57;;;;;;;29.80;15.50;;;;;;;1.83;53.19;99146.19;7765548;32;38573;-88
2024/01/14 11:16:21;;;;;;;28.30;13.18;;;;;;;1.44;54.79;99159.12;7777466;32;37455;-88
2024/01/14 11:20:40;;;;;;;28.75;13.55;;;;;;;1.79;52.94;99151.16;7789771;32;40123;-88
2024/01/14 11:25:21;;;;;;;28.90;13.55;;;;;;;1.35;53.78;99161.31;7766320;32;41436;-86
2024/01/14 11:29:40;;;;;;;24.80;13.35;;;;;;;1.50;53.80;99148.28;7813362;32;37903;-87
2024/01/14 11:33:56;;;;;;;25.45;11.65;;;;;;;2.37;52.42;99136.16;7791326;32;36303;-87
2024/01/14 11:38:33;;;;;;;25.88;10.95;;;;;;;2.04;52.96;99144.81;7765100;32;39397;-87
2024/01/14 11:42:59;;;;;;;24.48;12.63;;;;;;;1.93;52.82;99140.22;7774841;32;39980;-87
2024/01/14 11:47:16;;;;;;;28.17;12.85;;;;;;;2.05;51.93;99133.00;7789871;32;38397;-87
2024/01/14 11:51:34;;;;;;;29.37;13.73;;;;;;;1.73;53.47;99127.91;7775947;32;37845;-87
2024/01/14 11:55:50;;;;;;;25.08;12.73;;;;;;;1.71;53.72;99115.75;7789858;32;38624;-88
2024/01/14 12:00:08;;;;;;;25.77;14.13;;;;;;;2.45;51.54;99105.41;7789640;32;40802;-87
2024/01/14 12:04:25;;;;;;;25.08;12.95;;;;;;;2.79;51.09;99100.19;7789551;32;38673;-87
2024/01/14 12:08:41;;;;;;;26.02;13.48;;;;;;;2.94;49.78;99097.81;7789379;32;37291;-87
2024/01/14 12:13:04;;;;;;;22.90;12.13;;;;;;;2.47;50.85;99100.63;7791021;32;40100;-87
2024/01/14 12:17:20;;;;;;;25.60;12.07;;;;;;;2.20;51.52;99095.69;7793558;32;39938;-87
2024/01/14 12:21:36;;;;;;;29.05;12.75;;;;;;;2.79;50.26;99101.03;7792963;32;37912;-87
2024/01/14 12:25:54;;;;;;;25.20;11.63;;;;;;;3.45;49.37;99083.69;7784190;32;37225;-87
2024/01/14 12:30:22;;;;;;;24.15;11.38;;;;;;;3.03;49.54;99094.75;7785857;32;39143;-87
2024/01/14 12:34:40;;;;;;;20.33;10.98;;;;;;;2.81;50.66;99084.63;7807434;32;39717;-87
2024/01/14 12:38:56;;;;;;;32.55;15.43;;;;;;;2.91;50.11;99076.75;7793280;32;38232;-86
2024/01/14 12:43:13;;;;;;;19.77;10.63;;;;;;;3.05;50.09;99076.47;7778966;32;37543;-87
2024/01/14 12:47:29;;;;;;;20.33;10.77;;;;;;;3.15;49.34;99071.28;7776594;32;39260;-87
2024/01/14 12:51:57;;;;;;;26.87;11.35;;;;;;;3.01;49.80;99071.56;7790455;32;39395;-86
2024/01/14 12:56:14;;;;;;;20.75;9.98;;;;;;;3.04;50.12;99066.78;7767223;32;38795;-87
2024/01/14 13:00:31;;;;;;;19.48;9.57;;;;;;;3.08;48.85;99055.28;7765675;32;37381;-87
2024/01/14 13:04:48;;;;;;;21.58;9.40;;;;;;;3.25;49.25;99049.13;7765813;32;40019;-88
2024/01/14 13:09:05;;;;;;;20.05;10.95;;;;;;;3.69;47.75;99038.53;7773297;32;40174;-87
2024/01/14 13:13:21;;;;;;;21.15;11.48;;;;;;;3.74;48.03;99033.22;7791355;32;37800;-88
2024/01/14 13:17:38;;;;;;;18.52;10.18;;;;;;;4.20;47.25;99035.81;7780515;32;37809;-87
2024/01/14 13:21:55;;;;;;;19.55;9.52;;;;;;;4.04;46.52;99046.38;7765062;32;39254;-88
2024/01/14 13:26:11;;;;;;;17.55;9.80;;;;;;;4.05;47.64;99041.78;7769127;32;40299;-89
2024/01/14 13:30:27;;;;;;;25.88;10.23;;;;;;;4.28;46.69;99044.28;7767834;32;38603;-86
2024/01/14 13:34:44;;;;;;;16.55;8.90;;;;;;;4.73;46.02;99031.63;7771571;32;36878;-87
2024/01/14 13:39:01;;;;;;;15.45;8.05;;;;;;;5.77;43.92;99023.44;7773161;32;39845;-86
2024/01/14 13:43:18;;;;;;;16.70;8.50;;;;;;;5.93;42.96;99016.25;7778454;32;38943;-85
2024/01/14 13:47:34;;;;;;;17.75;9.07;;;;;;;6.14;41.99;99007.25;7778342;32;38080;-86
2024/01/14 13:51:51;;;;;;;19.65;8.70;;;;;;;7.01;40.50;99008.69;7777325;32;37906;-85
2024/01/14 13:56:07;;;;;;;25.25;7.95;;;;;;;9.37;36.16;98992.66;7777218;32;39342;-85
2024/01/14 14:00:24;;;;;;;16.58;8.63;;;;;;;11.40;31.57;98983.59;7770918;32;40867;-88
2024/01/14 14:04:41;;;;;;;16.98;8.00;;;;;;;11.91;30.42;98981.16;7777524;32;38037;-88
2024/01/14 14:08:57;;;;;;;17.02;8.45;;;;;;;12.60;29.09;98970.25;7777617;32;38091;-87
2024/01/14 14:13:14;;;;;;;17.58;8.10;;;;;;;12.42;29.08;98977.47;7778321;32;39169;-87
2024/01/14 14:17:31;;;;;;;18.30;8.45;;;;;;;14.71;25.79;98973.31;7776848;32;40765;-87
2024/01/14 14:21:48;;;;;;;16.80;8.60;;;;;;;14.01;26.21;98978.50;7774424;32;37920;-88
2024/01/14 14:26:15;;;;;;;15.52;8.45;;;;;;;12.99;27.71;98979.81;7778037;32;37219;-87
2024/01/14 14:30:31;;;;;;;17.23;7.87;;;;;;;13.07;27.41;98981.00;7791848;32;39439;-87
2024/01/14 14:34:48;;;;;;;14.63;7.72;;;;;;;10.82;30.77;98997.50;7768855;32;40764;-87
2024/01/14 14:39:04;;;;;;;14.55;7.95;;;;;;;9.70;32.83;98995.66;7764562;32;37900;-87
2024/01/14 14:43:20;;;;;;;18.08;9.10;;;;;;;9.42;33.35;98993.72;7764358;32;37199;-88
2024/01/14 14:47:37;;;;;;;18.58;9.68;;;;;;;8.34;35.27;98991.53;7764418;32;40032;-88
2024/01/14 14:51:54;;;;;;;15.38;8.73;;;;;;;8.27;35.78;98992.63;7764463;32;40514;-88
2024/01/14 14:56:10;;;;;;;15.90;8.75;;;;;;;8.16;35.52;98987.50;7764217;32;38490;-88
2024/01/14 15:00:26;;;;;;;16.45;8.10;;;;;;;7.56;36.73;98981.91;7764239;32;37157;-88
2024/01/14 15:04:42;;;;;;;18.95;9.65;;;;;;;6.20;39.51;98986.41;7764255;32;39277;-88
2024/01/14 15:09:01;;;;;;;17.70;9.30;;;;;;;5.87;40.76;98969.44;7763911;32;40339;-88
2024/01/14 15:13:18;;;;;;;22.75;10.02;;;;;;;5.42;41.79;98976.12;7763845;32;38416;-88
2024/01/14 15:17:34;;;;;;;21.12;10.68;;;;;;;5.30;42.22;98970.09;7763863;32;37002;-88
2024/01/14 15:21:50;;;;;;;21.45;11.25;;;;;;;4.99;43.08;98964.41;7763606;32;40054;-88
2024/01/14 15:26:09;;;;;;;20.00;9.60;;;;;;;4.56;44.58;98966.91;7763500;32;40882;-87
2024/01/14 15:30:25;;;;;;;21.83;10.15;;;;;;;4.57;44.72;98979.34;7763111;32;38641;-87
2024/01/14 15:34:43;;;;;;;19.80;9.68;;;;;;;4.21;45.55;98975.38;7763311;32;37574;-87
2024/01/14 15:39:00;;;;;;;23.60;11.07;;;;;;;4.06;46.49;98974.09;7763273;32;38737;-88
2024/01/14 15:43:16;;;;;;;23.12;10.85;;;;;;;4.24;45.71;98964.06;7762992;32;40082;-88
2024/01/14 15:47:33;;;;;;;22.40;11.45;;;;;;;3.82;46.96;98970.00;7763828;32;38618;-88
2024/01/14 15:51:49;;;;;;;42.38;19.80;;;;;;;4.17;45.92;98966.16;7766519;32;37935;-88
2024/01/14 15:56:06;;;;;;;26.25;12.68;;;;;;;4.09;45.91;98962.81;7766601;32;39387;-88
2024/01/14 16:00:22;;;;;;;19.30;11.52;;;;;;;3.94;46.34;98959.91;7766214;32;39939;-88
2024/01/14 16:04:39;;;;;;;21.25;11.40;;;;;;;3.85;46.67;98951.44;7770902;32;38633;-89
2024/01/14 16:08:55;;;;;;;20.42;10.77;;;;;;;3.65;47.30;98951.94;7791948;32;38029;-88
2024/01/14 16:13:11;;;;;;;21.02;11.63;;;;;;;3.95;46.43;98958.88;7793327;32;40067;-89
2024/01/14 16:17:28;;;;;;;24.35;12.40;;;;;;;3.56;47.22;98964.22;7793493;32;39613;-88
2024/01/14 16:21:44;;;;;;;21.92;11.52;;;;;;;3.56;47.43;98958.81;7785082;32;37569;-87
2024/01/14 16:26:00;;;;;;;20.30;10.18;;;;;;;3.67;47.70;98955.22;7783556;32;36760;-89
2024/01/14 16:30:16;;;;;;;19.40;10.45;;;;;;;3.78;47.48;98963.44;7793055;32;39346;-88
2024/01/14 16:34:33;;;;;;;18.52;10.85;;;;;;;3.60;48.16;98961.84;7793325;32;40077;-88
2024/01/14 16:38:50;;;;;;;24.83;11.15;;;;;;;3.52;48.63;98958.50;7793137;32;38168;-89
2024/01/14 16:43:06;;;;;;;26.08;11.70;;;;;;;3.59;48.58;98958.34;7793529;32;36991;-89
2024/01/14 16:47:23;;;;;;;26.83;14.87;;;;;;;3.52;48.87;98958.50;7793144;32;40073;-89
2024/01/14 16:51:39;;;;;;;19.87;11.35;;;;;;;3.60;48.68;98948.38;7792947;32;39884;-88
2024/01/14 16:55:55;;;;;;;22.52;11.55;;;;;;;3.46;49.22;98939.81;7786185;32;38744;-89
2024/01/14 17:00:12;;;;;;;19.23;11.02;;;;;;;3.61;48.70;98945.44;7775442;32;37152;-89
2024/01/14 17:04:28;;;;;;;21.95;11.77;;;;;;;3.69;48.55;98953.09;7779137;32;39963;-89
2024/01/14 17:08:46;;;;;;;22.55;12.23;;;;;;;3.70;48.30;98949.31;7778499;32;39847;-89
2024/01/14 17:13:03;;;;;;;21.40;11.23;;;;;;;3.96;47.55;98941.59;7777750;32;37944;-89
2024/01/14 17:17:19;;;;;;;28.83;14.68;;;;;;;3.59;48.85;98942.16;7778550;32;37193;-89
2024/01/14 17:21:36;;;;;;;25.58;13.73;;;;;;;3.90;48.13;98937.22;7777623;32;39734;-90
2024/01/14 17:25:53;;;;;;;30.23;14.00;;;;;;;3.72;48.43;98931.03;7770863;32;40049;-89
2024/01/14 17:30:23;;;;;;;24.95;12.98;;;;;;;3.90;47.77;98923.75;7779281;32;36447;-88
2024/01/14 17:34:39;;;;;;;21.02;12.10;;;;;;;3.75;47.71;98913.53;7789352;32;35934;-88
2024/01/14 17:38:56;;;;;;;25.20;13.55;;;;;;;3.47;49.13;98918.00;7777815;32;39887;-88
2024/01/14 17:43:12;;;;;;;23.25;11.85;;;;;;;3.58;48.79;98910.87;7778747;32;39678;-88
2024/01/14 17:47:29;;;;;;;31.62;13.73;;;;;;;3.73;48.80;98905.72;7772996;32;36796;-89
2024/01/14 17:51:46;;;;;;;22.58;11.82;;;;;;;3.79;48.32;98905.78;7778692;32;36998;-89
2024/01/14 17:56:03;;;;;;;24.33;12.02;;;;;;;3.83;48.36;98906.91;7769193;32;39941;-89
2024/01/14 18:00:19;;;;;;;23.73;11.85;;;;;;;3.44;49.37;98907.72;7778363;32;40746;-87
2024/01/14 18:04:37;;;;;;;24.63;12.23;;;;;;;3.33;49.92;98909.44;7777421;32;38012;-88
2024/01/14 18:08:54;;;;;;;25.33;12.73;;;;;;;3.52;49.50;98914.56;7777579;32;38283;-88
2024/01/14 18:13:10;;;;;;;35.38;16.02;;;;;;;3.38;49.21;98908.69;7773455;32;39042;-89
2024/01/14 18:17:30;;;;;;;24.85;13.55;;;;;;;3.34;48.94;98902.97;7777026;32;41012;-88
2024/01/14 18:21:46;;;;;;;25.58;14.77;;;;;;;3.12;49.18;98908.31;7776076;32;37705;-88
2024/01/14 18:26:04;;;;;;;40.80;18.37;;;;;;;3.07;49.39;98920.84;7767893;32;38246;-89
2024/01/14 18:30:20;;;;;;;33.53;16.55;;;;;;;2.90;49.83;98907.38;7777474;32;39904;-89
2024/01/14 18:34:42;;;;;;;28.85;14.87;;;;;;;2.80;49.93;98908.84;7776841;32;40014;-89
2024/01/14 18:38:58;;;;;;;29.50;14.85;;;;;;;2.38;51.09;98906.47;7774243;32;37842;-89
2024/01/14 18:43:17;;;;;;;26.92;15.27;;;;;;;2.58;50.71;98910.59;7776352;32;37219;-89
2024/01/14 18:47:34;;;;;;;29.40;15.80;;;;;;;2.47;50.74;98906.06;7770047;32;39101;-88
2024/01/14 18:51:51;;;;;;;28.67;15.15;;;;;;;2.88;49.71;98899.56;7771232;32;39875;-89
2024/01/14 18:56:08;;;;;;;33.55;16.98;;;;;;;2.58;50.33;98892.56;7776341;32;38783;-90
2024/01/14 19:00:24;;;;;;;29.83;15.70;;;;;;;2.86;50.17;98890.88;7775189;32;37966;-89
2024/01/14 19:04:41;;;;;;;29.23;14.98;;;;;;;2.83;50.24;98875.25;7775437;32;40237;-89
2024/01/14 19:09:04;;;;;;;28.25;14.43;;;;;;;2.88;49.83;98880.72;7775923;32;39999;-88
2024/01/14 19:13:23;;;;;;;30.23;13.85;;;;;;;2.80;50.00;98891.88;7776182;32;37713;-88
2024/01/14 19:17:39;;;;;;;27.90;15.18;;;;;;;2.92;49.62;98895.31;7769348;32;37942;-88
2024/01/14 19:21:56;;;;;;;35.38;16.00;;;;;;;2.96;49.33;98891.06;7767424;32;40012;-89
2024/01/14 19:26:13;;;;;;;29.77;14.55;;;;;;;2.96;49.48;98884.88;7771060;32;40093;-89
2024/01/14 19:30:29;;;;;;;34.13;17.10;;;;;;;2.98;49.14;98871.97;7774678;32;38776;-89
2024/01/14 19:34:46;;;;;;;33.72;17.15;;;;;;;2.73;49.69;98885.84;7766144;32;37824;-89
2024/01/14 19:39:02;;;;;;;33.42;16.80;;;;;;;2.87;49.34;98875.56;7774787;32;40005;-89
2024/01/14 19:43:21;;;;;;;31.30;16.45;;;;;;;3.12;48.61;98872.47;7775112;32;40232;-90
2024/01/14 19:47:38;;;;;;;32.00;15.50;;;;;;;2.79;49.49;98866.84;7779222;32;38799;-88
2024/01/14 19:51:54;;;;;;;31.12;14.68;;;;;;;2.73;49.47;98870.50;7785369;32;37541;-90